sensor_id;sensor_type;location;lat;lon;timestamp;P1;durP1;ratioP1;P2;durP2;ratioP2
60610;SDS011;46439;51.164;13.572;2023-06-10T00:00:09;6.90;;;4.90;;
60610;SDS011;46439;51.164;13.572;2023-06-10T00:02:41;6.90;;;4.50;;
60610;SDS011;46439;51.164;13.572;2023-06-10T00:05:10;6.00;;;4.90;;
60610;SDS011;46439;51.164;13.572;2023-06-10T00:07:39;7.20;;;5.30;;
60610;SDS011;46439;51.164;13.572;2023-06-10T00:10:08;7.90;;;4.90;;
60610;SDS011;46439;51.164;13.572;2023-06-10T00:12:37;7.40;;;5.30;;
60610;SDS011;46439;51.164;13.572;2023-06-10T00:15:07;6.20;;;4.50;;
60610;SDS011;46439;51.164;13.572;2023-06-10T00:17:36;6.30;;;4.60;;
60610;SDS011;46439;51.164;13.572;2023-06-10T00:20:25;5.90;;;4.80;;
60610;SDS011;46439;51.164;13.572;2023-06-10T00:22:53;6.70;;;4.60;;
60610;SDS011;46439;51.164;13.572;2023-06-10T00:25:23;6.30;;;5.00;;
60610;SDS011;46439;51.164;13.572;2023-06-10T00:27:52;8.20;;;5.00;;
60610;SDS011;46439;51.164;13.572;2023-06-10T00:30:20;10.10;;;5.10;;
60610;SDS011;46439;51.164;13.572;2023-06-10T00:32:49;7.20;;;5.60;;
60610;SDS011;46439;51.164;13.572;2023-06-10T00:35:18;8.10;;;5.10;;
60610;SDS011;46439;51.164;13.572;2023-06-10T00:37:46;6.60;;;5.20;;
60610;SDS011;46439;51.164;13.572;2023-06-10T00:40:15;7.50;;;4.80;;
60610;SDS011;46439;51.164;13.572;2023-06-10T00:42:43;8.70;;;5.20;;
60610;SDS011;46439;51.164;13.572;2023-06-10T00:45:11;6.80;;;5.10;;
60610;SDS011;46439;51.164;13.572;2023-06-10T00:47:40;8.50;;;5.60;;
60610;SDS011;46439;51.164;13.572;2023-06-10T00:50:09;7.10;;;5.40;;
60610;SDS011;46439;51.164;13.572;2023-06-10T00:52:38;9.00;;;5.30;;
60610;SDS011;46439;51.164;13.572;2023-06-10T00:55:11;7.80;;;5.50;;
60610;SDS011;46439;51.164;13.572;2023-06-10T00:57:39;7.30;;;5.60;;
60610;SDS011;46439;51.164;13.572;2023-06-10T01:00:13;6.40;;;5.10;;
60610;SDS011;46439;51.164;13.572;2023-06-10T01:02:42;7.50;;;5.80;;
60610;SDS011;46439;51.164;13.572;2023-06-10T01:05:10;7.90;;;5.30;;
60610;SDS011;46439;51.164;13.572;2023-06-10T01:07:42;7.20;;;5.50;;
60610;SDS011;46439;51.164;13.572;2023-06-10T01:10:18;8.50;;;5.50;;
60610;SDS011;46439;51.164;13.572;2023-06-10T01:12:52;8.20;;;5.80;;
60610;SDS011;46439;51.164;13.572;2023-06-10T01:15:25;8.70;;;5.60;;
60610;SDS011;46439;51.164;13.572;2023-06-10T01:17:55;12.30;;;5.80;;
60610;SDS011;46439;51.164;13.572;2023-06-10T01:20:24;7.50;;;5.50;;
60610;SDS011;46439;51.164;13.572;2023-06-10T01:22:54;9.80;;;5.50;;
60610;SDS011;46439;51.164;13.572;2023-06-10T01:25:24;8.50;;;5.50;;
60610;SDS011;46439;51.164;13.572;2023-06-10T01:27:55;7.00;;;5.40;;
60610;SDS011;46439;51.164;13.572;2023-06-10T01:30:32;8.60;;;5.30;;
60610;SDS011;46439;51.164;13.572;2023-06-10T01:33:08;6.80;;;5.50;;
60610;SDS011;46439;51.164;13.572;2023-06-10T01:35:40;8.10;;;5.40;;
60610;SDS011;46439;51.164;13.572;2023-06-10T01:38:10;6.80;;;5.80;;
60610;SDS011;46439;51.164;13.572;2023-06-10T01:40:41;7.40;;;5.60;;
60610;SDS011;46439;51.164;13.572;2023-06-10T01:43:10;7.70;;;5.50;;
60610;SDS011;46439;51.164;13.572;2023-06-10T01:45:39;8.50;;;5.30;;
60610;SDS011;46439;51.164;13.572;2023-06-10T01:48:07;8.30;;;5.20;;
60610;SDS011;46439;51.164;13.572;2023-06-10T01:50:36;6.90;;;5.80;;
60610;SDS011;46439;51.164;13.572;2023-06-10T01:53:05;8.20;;;5.90;;
60610;SDS011;46439;51.164;13.572;2023-06-10T01:55:34;10.50;;;6.00;;
60610;SDS011;46439;51.164;13.572;2023-06-10T01:58:02;6.90;;;5.80;;
60610;SDS011;46439;51.164;13.572;2023-06-10T02:00:31;8.20;;;5.90;;
60610;SDS011;46439;51.164;13.572;2023-06-10T02:03:00;8.50;;;5.40;;
60610;SDS011;46439;51.164;13.572;2023-06-10T02:05:28;8.70;;;5.80;;
60610;SDS011;46439;51.164;13.572;2023-06-10T02:07:56;10.20;;;5.90;;
60610;SDS011;46439;51.164;13.572;2023-06-10T02:10:25;8.40;;;5.50;;
60610;SDS011;46439;51.164;13.572;2023-06-10T02:12:53;9.40;;;5.80;;
60610;SDS011;46439;51.164;13.572;2023-06-10T02:15:22;8.60;;;5.90;;
60610;SDS011;46439;51.164;13.572;2023-06-10T02:17:51;6.80;;;5.40;;
60610;SDS011;46439;51.164;13.572;2023-06-10T02:20:21;8.10;;;5.80;;
60610;SDS011;46439;51.164;13.572;2023-06-10T02:22:49;7.70;;;5.80;;
60610;SDS011;46439;51.164;13.572;2023-06-10T02:25:18;7.40;;;5.10;;
60610;SDS011;46439;51.164;13.572;2023-06-10T02:27:46;7.60;;;5.40;;
60610;SDS011;46439;51.164;13.572;2023-06-10T02:30:15;6.60;;;5.40;;
60610;SDS011;46439;51.164;13.572;2023-06-10T02:32:44;8.50;;;5.60;;
60610;SDS011;46439;51.164;13.572;2023-06-10T02:35:14;10.80;;;6.10;;
60610;SDS011;46439;51.164;13.572;2023-06-10T02:37:43;8.30;;;6.30;;
60610;SDS011;46439;51.164;13.572;2023-06-10T02:40:12;9.20;;;6.30;;
60610;SDS011;46439;51.164;13.572;2023-06-10T02:42:40;6.90;;;6.00;;
60610;SDS011;46439;51.164;13.572;2023-06-10T02:45:09;8.60;;;5.90;;
60610;SDS011;46439;51.164;13.572;2023-06-10T02:47:38;7.10;;;5.80;;
60610;SDS011;46439;51.164;13.572;2023-06-10T02:50:08;7.80;;;5.90;;
60610;SDS011;46439;51.164;13.572;2023-06-10T02:52:37;6.90;;;5.70;;
60610;SDS011;46439;51.164;13.572;2023-06-10T02:55:06;8.20;;;6.00;;
60610;SDS011;46439;51.164;13.572;2023-06-10T02:57:35;8.00;;;5.80;;
60610;SDS011;46439;51.164;13.572;2023-06-10T03:00:04;8.20;;;5.70;;
60610;SDS011;46439;51.164;13.572;2023-06-10T03:02:37;8.20;;;6.00;;
60610;SDS011;46439;51.164;13.572;2023-06-10T03:05:07;9.20;;;5.50;;
60610;SDS011;46439;51.164;13.572;2023-06-10T03:07:36;8.40;;;5.80;;
60610;SDS011;46439;51.164;13.572;2023-06-10T03:10:06;8.60;;;6.20;;
60610;SDS011;46439;51.164;13.572;2023-06-10T03:12:35;8.40;;;6.10;;
60610;SDS011;46439;51.164;13.572;2023-06-10T03:15:04;7.50;;;5.90;;
60610;SDS011;46439;51.164;13.572;2023-06-10T03:17:34;7.70;;;5.90;;
60610;SDS011;46439;51.164;13.572;2023-06-10T03:20:03;7.60;;;6.10;;
60610;SDS011;46439;51.164;13.572;2023-06-10T03:22:34;10.40;;;6.40;;
60610;SDS011;46439;51.164;13.572;2023-06-10T03:25:04;10.70;;;6.00;;
60610;SDS011;46439;51.164;13.572;2023-06-10T03:27:35;8.70;;;5.50;;
60610;SDS011;46439;51.164;13.572;2023-06-10T03:30:04;7.10;;;6.10;;
60610;SDS011;46439;51.164;13.572;2023-06-10T03:32:35;7.70;;;6.10;;
60610;SDS011;46439;51.164;13.572;2023-06-10T03:35:04;10.00;;;6.30;;
60610;SDS011;46439;51.164;13.572;2023-06-10T03:37:34;8.70;;;6.00;;
60610;SDS011;46439;51.164;13.572;2023-06-10T03:40:03;9.90;;;6.30;;
60610;SDS011;46439;51.164;13.572;2023-06-10T03:42:32;8.20;;;5.90;;
60610;SDS011;46439;51.164;13.572;2023-06-10T03:45:01;8.20;;;5.90;;
60610;SDS011;46439;51.164;13.572;2023-06-10T03:47:33;9.00;;;5.70;;
60610;SDS011;46439;51.164;13.572;2023-06-10T03:50:03;10.40;;;6.60;;
60610;SDS011;46439;51.164;13.572;2023-06-10T03:52:34;7.90;;;6.20;;
60610;SDS011;46439;51.164;13.572;2023-06-10T03:55:05;10.10;;;7.90;;
60610;SDS011;46439;51.164;13.572;2023-06-10T03:57:34;9.00;;;6.30;;
60610;SDS011;46439;51.164;13.572;2023-06-10T04:00:03;9.20;;;6.40;;
60610;SDS011;46439;51.164;13.572;2023-06-10T04:02:37;8.20;;;6.20;;
60610;SDS011;46439;51.164;13.572;2023-06-10T04:05:12;10.10;;;6.30;;
60610;SDS011;46439;51.164;13.572;2023-06-10T04:07:41;10.00;;;6.60;;
60610;SDS011;46439;51.164;13.572;2023-06-10T04:10:10;10.00;;;7.00;;
60610;SDS011;46439;51.164;13.572;2023-06-10T04:12:39;8.90;;;6.40;;
60610;SDS011;46439;51.164;13.572;2023-06-10T04:15:08;8.40;;;6.60;;
60610;SDS011;46439;51.164;13.572;2023-06-10T04:17:37;8.40;;;6.50;;
60610;SDS011;46439;51.164;13.572;2023-06-10T04:20:07;8.90;;;6.30;;
60610;SDS011;46439;51.164;13.572;2023-06-10T04:22:36;10.00;;;7.00;;
60610;SDS011;46439;51.164;13.572;2023-06-10T04:25:05;8.80;;;6.50;;
60610;SDS011;46439;51.164;13.572;2023-06-10T04:27:35;11.90;;;6.70;;
60610;SDS011;46439;51.164;13.572;2023-06-10T04:30:04;9.80;;;7.00;;
60610;SDS011;46439;51.164;13.572;2023-06-10T04:32:34;12.30;;;7.70;;
60610;SDS011;46439;51.164;13.572;2023-06-10T04:35:02;9.40;;;6.90;;
60610;SDS011;46439;51.164;13.572;2023-06-10T04:37:31;10.20;;;7.50;;
60610;SDS011;46439;51.164;13.572;2023-06-10T04:40:00;13.90;;;7.50;;
60610;SDS011;46439;51.164;13.572;2023-06-10T04:42:28;9.30;;;6.50;;
60610;SDS011;46439;51.164;13.572;2023-06-10T04:44:57;10.60;;;7.20;;
60610;SDS011;46439;51.164;13.572;2023-06-10T04:47:25;15.10;;;7.30;;
60610;SDS011;46439;51.164;13.572;2023-06-10T04:49:54;10.00;;;7.30;;
60610;SDS011;46439;51.164;13.572;2023-06-10T04:52:23;8.50;;;7.30;;
60610;SDS011;46439;51.164;13.572;2023-06-10T04:54:52;9.10;;;7.20;;
60610;SDS011;46439;51.164;13.572;2023-06-10T04:57:20;10.80;;;7.30;;
60610;SDS011;46439;51.164;13.572;2023-06-10T04:59:49;10.10;;;7.10;;
60610;SDS011;46439;51.164;13.572;2023-06-10T05:02:18;9.90;;;7.80;;
60610;SDS011;46439;51.164;13.572;2023-06-10T05:04:46;9.00;;;7.00;;
60610;SDS011;46439;51.164;13.572;2023-06-10T05:07:15;10.40;;;7.10;;
60610;SDS011;46439;51.164;13.572;2023-06-10T05:09:43;8.30;;;7.00;;
60610;SDS011;46439;51.164;13.572;2023-06-10T05:12:12;10.90;;;6.70;;
60610;SDS011;46439;51.164;13.572;2023-06-10T05:14:40;9.90;;;7.50;;
60610;SDS011;46439;51.164;13.572;2023-06-10T05:17:09;9.90;;;7.10;;
60610;SDS011;46439;51.164;13.572;2023-06-10T05:19:39;9.60;;;7.40;;
60610;SDS011;46439;51.164;13.572;2023-06-10T05:22:09;10.10;;;7.20;;
60610;SDS011;46439;51.164;13.572;2023-06-10T05:24:39;11.40;;;7.40;;
60610;SDS011;46439;51.164;13.572;2023-06-10T05:27:08;9.30;;;6.90;;
60610;SDS011;46439;51.164;13.572;2023-06-10T05:29:37;9.90;;;7.40;;
60610;SDS011;46439;51.164;13.572;2023-06-10T05:32:07;9.80;;;7.30;;
60610;SDS011;46439;51.164;13.572;2023-06-10T05:34:36;10.10;;;6.90;;
60610;SDS011;46439;51.164;13.572;2023-06-10T05:37:05;12.20;;;7.00;;
60610;SDS011;46439;51.164;13.572;2023-06-10T05:39:33;11.00;;;7.00;;
60610;SDS011;46439;51.164;13.572;2023-06-10T05:42:07;10.30;;;6.80;;
60610;SDS011;46439;51.164;13.572;2023-06-10T05:44:36;14.00;;;9.80;;
60610;SDS011;46439;51.164;13.572;2023-06-10T05:47:05;11.40;;;8.90;;
60610;SDS011;46439;51.164;13.572;2023-06-10T05:49:34;11.80;;;8.20;;
60610;SDS011;46439;51.164;13.572;2023-06-10T05:52:03;9.30;;;7.90;;
60610;SDS011;46439;51.164;13.572;2023-06-10T05:54:32;8.40;;;7.20;;
60610;SDS011;46439;51.164;13.572;2023-06-10T05:57:00;8.40;;;5.80;;
60610;SDS011;46439;51.164;13.572;2023-06-10T05:59:30;6.80;;;5.90;;
60610;SDS011;46439;51.164;13.572;2023-06-10T06:01:58;6.80;;;6.10;;
60610;SDS011;46439;51.164;13.572;2023-06-10T06:04:26;8.20;;;6.40;;
60610;SDS011;46439;51.164;13.572;2023-06-10T06:06:55;7.20;;;5.90;;
60610;SDS011;46439;51.164;13.572;2023-06-10T06:09:23;9.70;;;6.10;;
60610;SDS011;46439;51.164;13.572;2023-06-10T06:11:52;9.80;;;5.80;;
60610;SDS011;46439;51.164;13.572;2023-06-10T06:14:21;9.40;;;6.00;;
60610;SDS011;46439;51.164;13.572;2023-06-10T06:16:49;7.70;;;6.20;;
60610;SDS011;46439;51.164;13.572;2023-06-10T06:19:18;8.00;;;6.10;;
60610;SDS011;46439;51.164;13.572;2023-06-10T06:21:46;7.00;;;6.10;;
60610;SDS011;46439;51.164;13.572;2023-06-10T06:24:15;12.40;;;6.20;;
60610;SDS011;46439;51.164;13.572;2023-06-10T06:26:44;7.70;;;6.00;;
60610;SDS011;46439;51.164;13.572;2023-06-10T06:29:12;6.30;;;5.60;;
60610;SDS011;46439;51.164;13.572;2023-06-10T06:31:41;7.00;;;5.90;;
60610;SDS011;46439;51.164;13.572;2023-06-10T06:34:09;6.90;;;6.00;;
60610;SDS011;46439;51.164;13.572;2023-06-10T06:36:38;8.60;;;5.10;;
60610;SDS011;46439;51.164;13.572;2023-06-10T06:39:06;5.50;;;4.70;;
60610;SDS011;46439;51.164;13.572;2023-06-10T06:41:34;10.40;;;5.30;;
60610;SDS011;46439;51.164;13.572;2023-06-10T06:44:03;9.60;;;5.20;;
60610;SDS011;46439;51.164;13.572;2023-06-10T06:46:32;8.30;;;5.20;;
60610;SDS011;46439;51.164;13.572;2023-06-10T06:49:00;7.00;;;4.80;;
60610;SDS011;46439;51.164;13.572;2023-06-10T06:51:28;5.40;;;4.30;;
60610;SDS011;46439;51.164;13.572;2023-06-10T06:53:57;6.80;;;4.60;;
60610;SDS011;46439;51.164;13.572;2023-06-10T06:56:25;4.50;;;4.10;;
60610;SDS011;46439;51.164;13.572;2023-06-10T06:58:54;5.40;;;4.20;;
60610;SDS011;46439;51.164;13.572;2023-06-10T07:01:23;6.70;;;4.30;;
60610;SDS011;46439;51.164;13.572;2023-06-10T07:03:51;5.20;;;4.50;;
60610;SDS011;46439;51.164;13.572;2023-06-10T07:06:20;6.40;;;4.20;;
60610;SDS011;46439;51.164;13.572;2023-06-10T07:08:48;5.90;;;4.60;;
60610;SDS011;46439;51.164;13.572;2023-06-10T07:11:17;5.30;;;4.50;;
60610;SDS011;46439;51.164;13.572;2023-06-10T07:13:46;5.50;;;4.50;;
60610;SDS011;46439;51.164;13.572;2023-06-10T07:16:15;7.20;;;4.70;;
60610;SDS011;46439;51.164;13.572;2023-06-10T07:18:43;7.80;;;4.90;;
60610;SDS011;46439;51.164;13.572;2023-06-10T07:21:12;5.60;;;4.40;;
60610;SDS011;46439;51.164;13.572;2023-06-10T07:23:42;6.80;;;5.20;;
60610;SDS011;46439;51.164;13.572;2023-06-10T07:26:11;5.30;;;4.60;;
60610;SDS011;46439;51.164;13.572;2023-06-10T07:28:40;7.80;;;4.60;;
60610;SDS011;46439;51.164;13.572;2023-06-10T07:31:08;7.00;;;4.70;;
60610;SDS011;46439;51.164;13.572;2023-06-10T07:33:38;5.90;;;4.20;;
60610;SDS011;46439;51.164;13.572;2023-06-10T07:36:07;5.20;;;4.60;;
60610;SDS011;46439;51.164;13.572;2023-06-10T07:38:36;5.50;;;4.30;;
60610;SDS011;46439;51.164;13.572;2023-06-10T07:41:04;6.50;;;4.50;;
60610;SDS011;46439;51.164;13.572;2023-06-10T07:43:33;5.60;;;4.60;;
60610;SDS011;46439;51.164;13.572;2023-06-10T07:46:01;7.30;;;4.30;;
60610;SDS011;46439;51.164;13.572;2023-06-10T07:48:31;6.90;;;4.20;;
60610;SDS011;46439;51.164;13.572;2023-06-10T07:51:00;7.10;;;4.30;;
60610;SDS011;46439;51.164;13.572;2023-06-10T07:53:29;9.20;;;4.60;;
60610;SDS011;46439;51.164;13.572;2023-06-10T07:55:57;7.60;;;4.60;;
60610;SDS011;46439;51.164;13.572;2023-06-10T07:58:25;6.60;;;3.90;;
60610;SDS011;46439;51.164;13.572;2023-06-10T08:00:54;5.70;;;4.10;;
60610;SDS011;46439;51.164;13.572;2023-06-10T08:03:22;5.50;;;3.90;;
60610;SDS011;46439;51.164;13.572;2023-06-10T08:05:51;7.70;;;4.00;;
60610;SDS011;46439;51.164;13.572;2023-06-10T08:08:19;5.00;;;3.90;;
60610;SDS011;46439;51.164;13.572;2023-06-10T08:10:48;4.20;;;3.70;;
60610;SDS011;46439;51.164;13.572;2023-06-10T08:13:16;6.10;;;4.00;;
60610;SDS011;46439;51.164;13.572;2023-06-10T08:15:45;5.50;;;4.00;;
60610;SDS011;46439;51.164;13.572;2023-06-10T08:18:14;5.90;;;4.20;;
60610;SDS011;46439;51.164;13.572;2023-06-10T08:20:43;4.40;;;3.60;;
60610;SDS011;46439;51.164;13.572;2023-06-10T08:23:11;5.80;;;3.60;;
60610;SDS011;46439;51.164;13.572;2023-06-10T08:25:40;5.50;;;4.00;;
60610;SDS011;46439;51.164;13.572;2023-06-10T08:28:09;5.20;;;4.30;;
60610;SDS011;46439;51.164;13.572;2023-06-10T08:30:37;5.60;;;3.80;;
60610;SDS011;46439;51.164;13.572;2023-06-10T08:33:06;5.50;;;4.10;;
60610;SDS011;46439;51.164;13.572;2023-06-10T08:35:34;5.70;;;4.10;;
60610;SDS011;46439;51.164;13.572;2023-06-10T08:38:02;4.80;;;3.80;;
60610;SDS011;46439;51.164;13.572;2023-06-10T08:40:31;4.90;;;4.20;;
60610;SDS011;46439;51.164;13.572;2023-06-10T08:43:03;7.90;;;4.00;;
60610;SDS011;46439;51.164;13.572;2023-06-10T08:45:35;6.30;;;4.40;;
60610;SDS011;46439;51.164;13.572;2023-06-10T08:48:03;5.20;;;3.90;;
60610;SDS011;46439;51.164;13.572;2023-06-10T08:50:33;6.30;;;3.90;;
60610;SDS011;46439;51.164;13.572;2023-06-10T08:53:04;6.80;;;3.90;;
60610;SDS011;46439;51.164;13.572;2023-06-10T08:55:35;4.50;;;4.10;;
60610;SDS011;46439;51.164;13.572;2023-06-10T08:58:04;6.60;;;4.10;;
60610;SDS011;46439;51.164;13.572;2023-06-10T09:00:33;8.50;;;4.10;;
60610;SDS011;46439;51.164;13.572;2023-06-10T09:03:04;6.90;;;4.10;;
60610;SDS011;46439;51.164;13.572;2023-06-10T09:05:35;5.40;;;3.80;;
60610;SDS011;46439;51.164;13.572;2023-06-10T09:08:04;5.40;;;3.60;;
60610;SDS011;46439;51.164;13.572;2023-06-10T09:10:34;4.70;;;4.00;;
60610;SDS011;46439;51.164;13.572;2023-06-10T09:13:03;5.20;;;4.20;;
60610;SDS011;46439;51.164;13.572;2023-06-10T09:15:32;5.00;;;4.00;;
60610;SDS011;46439;51.164;13.572;2023-06-10T09:18:00;5.90;;;4.40;;
60610;SDS011;46439;51.164;13.572;2023-06-10T09:20:29;7.00;;;4.10;;
60610;SDS011;46439;51.164;13.572;2023-06-10T09:22:58;4.30;;;3.90;;
60610;SDS011;46439;51.164;13.572;2023-06-10T09:25:35;5.00;;;4.00;;
60610;SDS011;46439;51.164;13.572;2023-06-10T09:28:08;5.00;;;3.90;;
60610;SDS011;46439;51.164;13.572;2023-06-10T09:30:41;4.90;;;3.80;;
60610;SDS011;46439;51.164;13.572;2023-06-10T09:33:13;4.60;;;3.60;;
60610;SDS011;46439;51.164;13.572;2023-06-10T09:35:46;6.10;;;3.80;;
60610;SDS011;46439;51.164;13.572;2023-06-10T09:38:15;3.80;;;3.40;;
60610;SDS011;46439;51.164;13.572;2023-06-10T09:40:51;7.20;;;3.50;;
60610;SDS011;46439;51.164;13.572;2023-06-10T09:43:20;6.30;;;3.00;;
60610;SDS011;46439;51.164;13.572;2023-06-10T09:45:49;4.40;;;2.90;;
60610;SDS011;46439;51.164;13.572;2023-06-10T09:48:21;6.30;;;3.30;;
60610;SDS011;46439;51.164;13.572;2023-06-10T09:50:50;3.80;;;3.20;;
60610;SDS011;46439;51.164;13.572;2023-06-10T09:53:20;4.20;;;2.90;;
60610;SDS011;46439;51.164;13.572;2023-06-10T09:55:48;5.50;;;2.90;;
60610;SDS011;46439;51.164;13.572;2023-06-10T09:58:18;4.20;;;2.90;;
60610;SDS011;46439;51.164;13.572;2023-06-10T10:01:05;4.40;;;2.90;;
60610;SDS011;46439;51.164;13.572;2023-06-10T10:03:35;4.10;;;3.20;;
60610;SDS011;46439;51.164;13.572;2023-06-10T10:06:12;5.20;;;3.00;;
60610;SDS011;46439;51.164;13.572;2023-06-10T10:08:42;5.10;;;3.00;;
60610;SDS011;46439;51.164;13.572;2023-06-10T10:11:11;5.80;;;3.50;;
60610;SDS011;46439;51.164;13.572;2023-06-10T10:13:40;7.90;;;3.10;;
60610;SDS011;46439;51.164;13.572;2023-06-10T10:16:11;3.70;;;3.00;;
60610;SDS011;46439;51.164;13.572;2023-06-10T10:18:45;4.00;;;3.40;;
60610;SDS011;46439;51.164;13.572;2023-06-10T10:21:18;5.30;;;3.10;;
60610;SDS011;46439;51.164;13.572;2023-06-10T10:23:53;4.60;;;3.60;;
60610;SDS011;46439;51.164;13.572;2023-06-10T10:26:26;4.70;;;3.70;;
60610;SDS011;46439;51.164;13.572;2023-06-10T10:29:03;3.60;;;3.30;;
60610;SDS011;46439;51.164;13.572;2023-06-10T10:31:36;5.10;;;3.40;;
60610;SDS011;46439;51.164;13.572;2023-06-10T10:34:09;4.00;;;3.60;;
60610;SDS011;46439;51.164;13.572;2023-06-10T10:36:43;4.80;;;3.80;;
60610;SDS011;46439;51.164;13.572;2023-06-10T10:39:12;4.90;;;3.40;;
60610;SDS011;46439;51.164;13.572;2023-06-10T10:41:41;4.60;;;3.60;;
60610;SDS011;46439;51.164;13.572;2023-06-10T10:44:11;4.10;;;3.70;;
60610;SDS011;46439;51.164;13.572;2023-06-10T10:46:43;4.10;;;3.60;;
60610;SDS011;46439;51.164;13.572;2023-06-10T10:49:15;6.90;;;3.90;;
60610;SDS011;46439;51.164;13.572;2023-06-10T10:51:56;6.60;;;3.80;;
60610;SDS011;46439;51.164;13.572;2023-06-10T10:54:29;6.60;;;3.40;;
60610;SDS011;46439;51.164;13.572;2023-06-10T10:59:52;4.50;;;3.70;;
60610;SDS011;46439;51.164;13.572;2023-06-10T11:02:36;4.30;;;3.90;;
60610;SDS011;46439;51.164;13.572;2023-06-10T11:05:09;3.80;;;3.50;;
60610;SDS011;46439;51.164;13.572;2023-06-10T11:07:40;7.40;;;3.80;;
60610;SDS011;46439;51.164;13.572;2023-06-10T11:10:20;5.60;;;3.90;;
60610;SDS011;46439;51.164;13.572;2023-06-10T11:12:57;7.30;;;4.00;;
60610;SDS011;46439;51.164;13.572;2023-06-10T11:15:27;5.40;;;4.10;;
60610;SDS011;46439;51.164;13.572;2023-06-10T11:18:09;7.20;;;3.90;;
60610;SDS011;46439;51.164;13.572;2023-06-10T11:20:45;4.20;;;3.70;;
60610;SDS011;46439;51.164;13.572;2023-06-10T11:23:39;4.60;;;3.90;;
60610;SDS011;46439;51.164;13.572;2023-06-10T11:26:15;4.30;;;3.90;;
60610;SDS011;46439;51.164;13.572;2023-06-10T11:29:06;4.10;;;3.70;;
60610;SDS011;46439;51.164;13.572;2023-06-10T11:31:37;9.20;;;3.70;;
60610;SDS011;46439;51.164;13.572;2023-06-10T11:34:10;7.50;;;3.80;;
60610;SDS011;46439;51.164;13.572;2023-06-10T11:36:39;3.70;;;3.40;;
60610;SDS011;46439;51.164;13.572;2023-06-10T11:39:09;4.90;;;3.70;;
60610;SDS011;46439;51.164;13.572;2023-06-10T11:41:38;5.10;;;4.00;;
60610;SDS011;46439;51.164;13.572;2023-06-10T11:44:10;4.80;;;3.50;;
60610;SDS011;46439;51.164;13.572;2023-06-10T11:46:40;4.10;;;3.60;;
60610;SDS011;46439;51.164;13.572;2023-06-10T11:49:09;8.20;;;3.90;;
60610;SDS011;46439;51.164;13.572;2023-06-10T11:51:38;5.20;;;3.80;;
60610;SDS011;46439;51.164;13.572;2023-06-10T11:54:11;5.30;;;3.70;;
60610;SDS011;46439;51.164;13.572;2023-06-10T11:56:40;5.50;;;3.90;;
60610;SDS011;46439;51.164;13.572;2023-06-10T11:59:08;4.40;;;3.70;;
60610;SDS011;46439;51.164;13.572;2023-06-10T12:01:37;5.30;;;3.50;;
60610;SDS011;46439;51.164;13.572;2023-06-10T12:04:11;6.50;;;3.60;;
60610;SDS011;46439;51.164;13.572;2023-06-10T12:06:42;5.70;;;3.50;;
60610;SDS011;46439;51.164;13.572;2023-06-10T12:11:44;5.10;;;3.50;;
60610;SDS011;46439;51.164;13.572;2023-06-10T12:14:15;4.20;;;3.60;;
60610;SDS011;46439;51.164;13.572;2023-06-10T12:17:04;3.70;;;3.40;;
60610;SDS011;46439;51.164;13.572;2023-06-10T12:19:33;5.80;;;3.30;;
60610;SDS011;46439;51.164;13.572;2023-06-10T12:22:06;4.60;;;3.60;;
60610;SDS011;46439;51.164;13.572;2023-06-10T12:24:35;5.70;;;3.70;;
60610;SDS011;46439;51.164;13.572;2023-06-10T12:27:12;4.90;;;3.80;;
60610;SDS011;46439;51.164;13.572;2023-06-10T12:29:40;4.00;;;3.60;;
60610;SDS011;46439;51.164;13.572;2023-06-10T12:35:03;5.40;;;3.70;;
60610;SDS011;46439;51.164;13.572;2023-06-10T12:37:33;4.90;;;3.80;;
60610;SDS011;46439;51.164;13.572;2023-06-10T12:40:02;5.10;;;3.80;;
60610;SDS011;46439;51.164;13.572;2023-06-10T12:42:32;4.00;;;3.40;;
60610;SDS011;46439;51.164;13.572;2023-06-10T12:45:03;4.20;;;3.20;;
60610;SDS011;46439;51.164;13.572;2023-06-10T12:47:35;4.20;;;3.50;;
60610;SDS011;46439;51.164;13.572;2023-06-10T12:50:08;5.90;;;3.40;;
60610;SDS011;46439;51.164;13.572;2023-06-10T12:52:38;4.00;;;3.60;;
60610;SDS011;46439;51.164;13.572;2023-06-10T12:55:08;4.60;;;3.50;;
60610;SDS011;46439;51.164;13.572;2023-06-10T12:57:36;5.30;;;3.60;;
60610;SDS011;46439;51.164;13.572;2023-06-10T13:00:15;4.20;;;3.60;;
60610;SDS011;46439;51.164;13.572;2023-06-10T13:02:44;4.20;;;3.40;;
60610;SDS011;46439;51.164;13.572;2023-06-10T13:05:13;5.90;;;3.30;;
60610;SDS011;46439;51.164;13.572;2023-06-10T13:07:41;6.80;;;3.90;;
60610;SDS011;46439;51.164;13.572;2023-06-10T13:10:10;5.30;;;3.80;;
60610;SDS011;46439;51.164;13.572;2023-06-10T13:12:40;5.00;;;3.30;;
60610;SDS011;46439;51.164;13.572;2023-06-10T13:15:09;4.10;;;3.60;;
60610;SDS011;46439;51.164;13.572;2023-06-10T13:17:37;7.90;;;3.40;;
60610;SDS011;46439;51.164;13.572;2023-06-10T13:20:07;5.40;;;3.80;;
60610;SDS011;46439;51.164;13.572;2023-06-10T13:22:37;8.60;;;3.70;;
60610;SDS011;46439;51.164;13.572;2023-06-10T13:25:06;5.30;;;3.70;;
60610;SDS011;46439;51.164;13.572;2023-06-10T13:27:35;6.30;;;3.60;;
60610;SDS011;46439;51.164;13.572;2023-06-10T13:30:09;4.10;;;3.60;;
60610;SDS011;46439;51.164;13.572;2023-06-10T13:32:38;4.80;;;3.80;;
60610;SDS011;46439;51.164;13.572;2023-06-10T13:35:07;8.90;;;3.90;;
60610;SDS011;46439;51.164;13.572;2023-06-10T13:37:36;3.90;;;3.50;;
60610;SDS011;46439;51.164;13.572;2023-06-10T13:40:05;6.20;;;4.00;;
60610;SDS011;46439;51.164;13.572;2023-06-10T13:42:36;5.40;;;3.70;;
60610;SDS011;46439;51.164;13.572;2023-06-10T13:45:07;3.60;;;3.10;;
60610;SDS011;46439;51.164;13.572;2023-06-10T13:47:36;5.20;;;3.50;;
60610;SDS011;46439;51.164;13.572;2023-06-10T13:50:06;5.40;;;3.60;;
60610;SDS011;46439;51.164;13.572;2023-06-10T13:52:35;3.70;;;3.40;;
60610;SDS011;46439;51.164;13.572;2023-06-10T13:55:04;4.90;;;3.50;;
60610;SDS011;46439;51.164;13.572;2023-06-10T13:57:33;5.50;;;3.50;;
60610;SDS011;46439;51.164;13.572;2023-06-10T14:00:02;3.80;;;3.50;;
60610;SDS011;46439;51.164;13.572;2023-06-10T14:02:32;5.30;;;3.50;;
60610;SDS011;46439;51.164;13.572;2023-06-10T14:05:01;4.50;;;3.30;;
60610;SDS011;46439;51.164;13.572;2023-06-10T14:07:29;5.10;;;3.70;;
60610;SDS011;46439;51.164;13.572;2023-06-10T14:09:58;6.80;;;4.00;;
60610;SDS011;46439;51.164;13.572;2023-06-10T14:12:26;4.20;;;3.50;;
60610;SDS011;46439;51.164;13.572;2023-06-10T14:14:55;5.40;;;3.40;;
60610;SDS011;46439;51.164;13.572;2023-06-10T14:17:23;3.70;;;3.30;;
60610;SDS011;46439;51.164;13.572;2023-06-10T14:19:52;6.00;;;3.40;;
60610;SDS011;46439;51.164;13.572;2023-06-10T14:22:20;6.00;;;3.10;;
60610;SDS011;46439;51.164;13.572;2023-06-10T14:24:49;4.00;;;3.10;;
60610;SDS011;46439;51.164;13.572;2023-06-10T14:27:17;2.90;;;2.60;;
60610;SDS011;46439;51.164;13.572;2023-06-10T14:29:46;4.20;;;2.80;;
60610;SDS011;46439;51.164;13.572;2023-06-10T14:32:15;6.20;;;3.30;;
60610;SDS011;46439;51.164;13.572;2023-06-10T14:34:43;4.20;;;2.90;;
60610;SDS011;46439;51.164;13.572;2023-06-10T14:37:13;2.90;;;2.60;;
60610;SDS011;46439;51.164;13.572;2023-06-10T14:39:41;3.50;;;2.50;;
60610;SDS011;46439;51.164;13.572;2023-06-10T14:42:10;3.40;;;2.90;;
60610;SDS011;46439;51.164;13.572;2023-06-10T14:44:38;4.20;;;3.00;;
60610;SDS011;46439;51.164;13.572;2023-06-10T14:47:07;4.50;;;3.00;;
60610;SDS011;46439;51.164;13.572;2023-06-10T14:49:35;4.50;;;2.70;;
60610;SDS011;46439;51.164;13.572;2023-06-10T14:52:04;3.40;;;2.90;;
60610;SDS011;46439;51.164;13.572;2023-06-10T14:54:33;3.40;;;3.10;;
60610;SDS011;46439;51.164;13.572;2023-06-10T14:57:02;3.80;;;2.80;;